sensor_id;sensor_type;location;lat;lon;timestamp;P1;durP1;ratioP1;P2;durP2;ratioP2
9156;SDS011;4613;48.392;9.998;2023-05-29T00:00:57;3.40;;;2.80;;
9156;SDS011;4613;48.392;9.998;2023-05-29T00:03:46;3.20;;;2.53;;
9156;SDS011;4613;48.392;9.998;2023-05-29T00:06:35;5.90;;;2.53;;
9156;SDS011;4613;48.392;9.998;2023-05-29T00:09:24;4.13;;;2.50;;
9156;SDS011;4613;48.392;9.998;2023-05-29T00:12:13;3.23;;;2.47;;
9156;SDS011;4613;48.392;9.998;2023-05-29T00:15:04;2.50;;;2.30;;
9156;SDS011;4613;48.392;9.998;2023-05-29T00:17:53;3.70;;;2.20;;
9156;SDS011;4613;48.392;9.998;2023-05-29T00:20:43;3.37;;;2.30;;
9156;SDS011;4613;48.392;9.998;2023-05-29T00:23:33;3.57;;;2.27;;
9156;SDS011;4613;48.392;9.998;2023-05-29T00:26:22;2.57;;;2.03;;
9156;SDS011;4613;48.392;9.998;2023-05-29T00:29:16;2.50;;;2.07;;
9156;SDS011;4613;48.392;9.998;2023-05-29T00:32:06;2.63;;;1.93;;
9156;SDS011;4613;48.392;9.998;2023-05-29T00:34:55;3.17;;;2.00;;
9156;SDS011;4613;48.392;9.998;2023-05-29T00:37:44;3.67;;;1.73;;
9156;SDS011;4613;48.392;9.998;2023-05-29T00:40:34;4.63;;;2.13;;
9156;SDS011;4613;48.392;9.998;2023-05-29T00:43:24;3.60;;;2.10;;
9156;SDS011;4613;48.392;9.998;2023-05-29T00:46:14;2.10;;;1.90;;
9156;SDS011;4613;48.392;9.998;2023-05-29T00:49:04;5.63;;;2.43;;
9156;SDS011;4613;48.392;9.998;2023-05-29T00:51:54;2.47;;;1.90;;
9156;SDS011;4613;48.392;9.998;2023-05-29T00:54:44;2.50;;;2.27;;
9156;SDS011;4613;48.392;9.998;2023-05-29T00:57:35;2.40;;;1.93;;
9156;SDS011;4613;48.392;9.998;2023-05-29T01:00:26;2.87;;;2.27;;
9156;SDS011;4613;48.392;9.998;2023-05-29T01:03:15;3.10;;;1.97;;
9156;SDS011;4613;48.392;9.998;2023-05-29T01:06:05;2.90;;;2.00;;
9156;SDS011;4613;48.392;9.998;2023-05-29T01:08:56;2.00;;;1.73;;
9156;SDS011;4613;48.392;9.998;2023-05-29T01:11:48;2.63;;;2.00;;
9156;SDS011;4613;48.392;9.998;2023-05-29T01:14:57;2.53;;;1.80;;
9156;SDS011;4613;48.392;9.998;2023-05-29T01:20:55;3.33;;;2.20;;
9156;SDS011;4613;48.392;9.998;2023-05-29T01:27:04;2.70;;;2.00;;
9156;SDS011;4613;48.392;9.998;2023-05-29T01:29:56;2.33;;;2.03;;
9156;SDS011;4613;48.392;9.998;2023-05-29T01:32:47;2.40;;;2.10;;
9156;SDS011;4613;48.392;9.998;2023-05-29T01:35:37;2.37;;;1.90;;
9156;SDS011;4613;48.392;9.998;2023-05-29T01:38:26;2.50;;;1.90;;
9156;SDS011;4613;48.392;9.998;2023-05-29T01:41:15;2.73;;;2.20;;
9156;SDS011;4613;48.392;9.998;2023-05-29T01:44:06;2.90;;;2.00;;
9156;SDS011;4613;48.392;9.998;2023-05-29T01:46:57;3.90;;;2.30;;
9156;SDS011;4613;48.392;9.998;2023-05-29T01:49:47;2.27;;;2.00;;
9156;SDS011;4613;48.392;9.998;2023-05-29T01:52:38;2.77;;;2.07;;
9156;SDS011;4613;48.392;9.998;2023-05-29T01:55:29;3.20;;;2.10;;
9156;SDS011;4613;48.392;9.998;2023-05-29T01:58:19;4.37;;;2.07;;
9156;SDS011;4613;48.392;9.998;2023-05-29T02:01:11;2.37;;;2.17;;
9156;SDS011;4613;48.392;9.998;2023-05-29T02:04:00;3.87;;;2.20;;
9156;SDS011;4613;48.392;9.998;2023-05-29T02:06:50;5.33;;;2.10;;
9156;SDS011;4613;48.392;9.998;2023-05-29T02:09:42;2.27;;;1.90;;
9156;SDS011;4613;48.392;9.998;2023-05-29T02:12:31;4.20;;;1.90;;
9156;SDS011;4613;48.392;9.998;2023-05-29T02:15:21;5.07;;;2.47;;
9156;SDS011;4613;48.392;9.998;2023-05-29T02:18:13;3.80;;;2.10;;
9156;SDS011;4613;48.392;9.998;2023-05-29T02:21:03;2.20;;;1.90;;
9156;SDS011;4613;48.392;9.998;2023-05-29T02:23:52;3.50;;;2.30;;
9156;SDS011;4613;48.392;9.998;2023-05-29T02:26:41;2.10;;;1.90;;
9156;SDS011;4613;48.392;9.998;2023-05-29T02:29:31;2.87;;;2.20;;
9156;SDS011;4613;48.392;9.998;2023-05-29T02:32:20;2.57;;;2.20;;
9156;SDS011;4613;48.392;9.998;2023-05-29T02:35:11;2.90;;;1.90;;
9156;SDS011;4613;48.392;9.998;2023-05-29T02:38:02;2.63;;;1.87;;
9156;SDS011;4613;48.392;9.998;2023-05-29T02:40:52;2.87;;;2.33;;
9156;SDS011;4613;48.392;9.998;2023-05-29T02:43:42;2.03;;;1.83;;
9156;SDS011;4613;48.392;9.998;2023-05-29T02:46:31;2.63;;;2.10;;
9156;SDS011;4613;48.392;9.998;2023-05-29T02:49:20;3.23;;;2.00;;
9156;SDS011;4613;48.392;9.998;2023-05-29T02:52:09;2.23;;;1.87;;
9156;SDS011;4613;48.392;9.998;2023-05-29T02:54:59;2.63;;;2.07;;
9156;SDS011;4613;48.392;9.998;2023-05-29T02:57:48;2.33;;;1.90;;
9156;SDS011;4613;48.392;9.998;2023-05-29T03:00:42;4.40;;;2.30;;
9156;SDS011;4613;48.392;9.998;2023-05-29T03:03:32;3.63;;;2.47;;
9156;SDS011;4613;48.392;9.998;2023-05-29T03:06:21;3.77;;;2.23;;
9156;SDS011;4613;48.392;9.998;2023-05-29T03:09:10;2.47;;;2.03;;
9156;SDS011;4613;48.392;9.998;2023-05-29T03:11:59;3.00;;;2.23;;
9156;SDS011;4613;48.392;9.998;2023-05-29T03:14:51;4.07;;;2.30;;
9156;SDS011;4613;48.392;9.998;2023-05-29T03:17:40;2.83;;;2.13;;
9156;SDS011;4613;48.392;9.998;2023-05-29T03:20:34;5.13;;;2.30;;
9156;SDS011;4613;48.392;9.998;2023-05-29T03:23:24;2.53;;;1.90;;
9156;SDS011;4613;48.392;9.998;2023-05-29T03:26:14;2.53;;;2.03;;
9156;SDS011;4613;48.392;9.998;2023-05-29T03:29:05;3.13;;;2.20;;
9156;SDS011;4613;48.392;9.998;2023-05-29T03:31:56;2.67;;;1.90;;
9156;SDS011;4613;48.392;9.998;2023-05-29T03:34:49;3.20;;;2.17;;
9156;SDS011;4613;48.392;9.998;2023-05-29T03:37:39;3.73;;;1.80;;
9156;SDS011;4613;48.392;9.998;2023-05-29T03:40:28;3.70;;;2.40;;
9156;SDS011;4613;48.392;9.998;2023-05-29T03:43:18;2.10;;;1.90;;
9156;SDS011;4613;48.392;9.998;2023-05-29T03:46:09;3.37;;;2.23;;
9156;SDS011;4613;48.392;9.998;2023-05-29T03:48:59;3.17;;;2.10;;
9156;SDS011;4613;48.392;9.998;2023-05-29T03:51:49;1.90;;;1.70;;
9156;SDS011;4613;48.392;9.998;2023-05-29T03:54:39;4.93;;;2.13;;
9156;SDS011;4613;48.392;9.998;2023-05-29T03:57:28;2.40;;;1.83;;
9156;SDS011;4613;48.392;9.998;2023-05-29T04:00:18;2.97;;;2.10;;
9156;SDS011;4613;48.392;9.998;2023-05-29T04:03:09;7.23;;;2.10;;
9156;SDS011;4613;48.392;9.998;2023-05-29T04:05:59;3.47;;;2.27;;
9156;SDS011;4613;48.392;9.998;2023-05-29T04:08:49;2.33;;;1.90;;
9156;SDS011;4613;48.392;9.998;2023-05-29T04:11:38;4.40;;;2.03;;
9156;SDS011;4613;48.392;9.998;2023-05-29T04:14:28;4.03;;;2.10;;
9156;SDS011;4613;48.392;9.998;2023-05-29T04:17:17;2.07;;;1.87;;
9156;SDS011;4613;48.392;9.998;2023-05-29T04:20:07;5.07;;;2.40;;
9156;SDS011;4613;48.392;9.998;2023-05-29T04:22:57;2.23;;;2.00;;
9156;SDS011;4613;48.392;9.998;2023-05-29T04:25:47;2.70;;;2.00;;
9156;SDS011;4613;48.392;9.998;2023-05-29T04:28:43;2.50;;;1.70;;
9156;SDS011;4613;48.392;9.998;2023-05-29T04:31:34;2.30;;;1.80;;
9156;SDS011;4613;48.392;9.998;2023-05-29T04:34:25;2.37;;;1.90;;
9156;SDS011;4613;48.392;9.998;2023-05-29T04:37:15;2.27;;;1.80;;
9156;SDS011;4613;48.392;9.998;2023-05-29T04:40:05;2.60;;;2.20;;
9156;SDS011;4613;48.392;9.998;2023-05-29T04:42:58;2.27;;;1.70;;
9156;SDS011;4613;48.392;9.998;2023-05-29T04:45:56;3.87;;;1.90;;
9156;SDS011;4613;48.392;9.998;2023-05-29T04:48:47;4.20;;;2.00;;
9156;SDS011;4613;48.392;9.998;2023-05-29T04:51:37;1.80;;;1.63;;
9156;SDS011;4613;48.392;9.998;2023-05-29T04:54:29;3.40;;;2.10;;
9156;SDS011;4613;48.392;9.998;2023-05-29T04:57:18;1.80;;;1.70;;
9156;SDS011;4613;48.392;9.998;2023-05-29T05:00:08;2.80;;;2.10;;
9156;SDS011;4613;48.392;9.998;2023-05-29T05:03:02;1.83;;;1.60;;
9156;SDS011;4613;48.392;9.998;2023-05-29T05:05:52;2.23;;;1.90;;
9156;SDS011;4613;48.392;9.998;2023-05-29T05:08:42;3.63;;;1.90;;
9156;SDS011;4613;48.392;9.998;2023-05-29T05:11:32;1.63;;;1.40;;
9156;SDS011;4613;48.392;9.998;2023-05-29T05:14:22;2.73;;;1.80;;
9156;SDS011;4613;48.392;9.998;2023-05-29T05:17:11;2.60;;;1.80;;
9156;SDS011;4613;48.392;9.998;2023-05-29T05:20:00;2.60;;;1.93;;
9156;SDS011;4613;48.392;9.998;2023-05-29T05:22:50;2.37;;;1.97;;
9156;SDS011;4613;48.392;9.998;2023-05-29T05:25:40;2.90;;;1.90;;
9156;SDS011;4613;48.392;9.998;2023-05-29T05:28:29;2.37;;;1.90;;
9156;SDS011;4613;48.392;9.998;2023-05-29T05:31:19;2.70;;;1.90;;
9156;SDS011;4613;48.392;9.998;2023-05-29T05:34:08;3.33;;;1.60;;
9156;SDS011;4613;48.392;9.998;2023-05-29T05:36:57;2.47;;;1.97;;
9156;SDS011;4613;48.392;9.998;2023-05-29T05:39:47;2.77;;;1.93;;
9156;SDS011;4613;48.392;9.998;2023-05-29T05:42:36;2.83;;;1.93;;
9156;SDS011;4613;48.392;9.998;2023-05-29T05:45:31;4.40;;;2.17;;
9156;SDS011;4613;48.392;9.998;2023-05-29T05:48:20;4.00;;;2.10;;
9156;SDS011;4613;48.392;9.998;2023-05-29T05:51:10;3.23;;;1.97;;
9156;SDS011;4613;48.392;9.998;2023-05-29T05:54:01;4.97;;;2.10;;
9156;SDS011;4613;48.392;9.998;2023-05-29T05:56:51;3.77;;;1.83;;
9156;SDS011;4613;48.392;9.998;2023-05-29T05:59:41;3.00;;;1.87;;
9156;SDS011;4613;48.392;9.998;2023-05-29T06:02:31;2.20;;;1.90;;
9156;SDS011;4613;48.392;9.998;2023-05-29T06:05:20;2.47;;;1.87;;
9156;SDS011;4613;48.392;9.998;2023-05-29T06:08:10;2.43;;;2.07;;
9156;SDS011;4613;48.392;9.998;2023-05-29T06:11:01;3.40;;;2.17;;
9156;SDS011;4613;48.392;9.998;2023-05-29T06:13:51;2.43;;;2.00;;
9156;SDS011;4613;48.392;9.998;2023-05-29T06:16:46;2.97;;;1.80;;
9156;SDS011;4613;48.392;9.998;2023-05-29T06:19:36;2.27;;;1.80;;
9156;SDS011;4613;48.392;9.998;2023-05-29T06:22:25;4.67;;;1.80;;
9156;SDS011;4613;48.392;9.998;2023-05-29T06:25:14;1.70;;;1.60;;
9156;SDS011;4613;48.392;9.998;2023-05-29T06:28:04;2.83;;;1.80;;
9156;SDS011;4613;48.392;9.998;2023-05-29T06:30:55;2.50;;;1.80;;
9156;SDS011;4613;48.392;9.998;2023-05-29T06:33:44;4.70;;;2.13;;
9156;SDS011;4613;48.392;9.998;2023-05-29T06:36:34;3.03;;;2.00;;
9156;SDS011;4613;48.392;9.998;2023-05-29T06:39:23;2.73;;;2.13;;
9156;SDS011;4613;48.392;9.998;2023-05-29T06:42:15;2.30;;;1.97;;
9156;SDS011;4613;48.392;9.998;2023-05-29T06:45:06;2.53;;;2.00;;
9156;SDS011;4613;48.392;9.998;2023-05-29T06:47:57;2.50;;;1.90;;
9156;SDS011;4613;48.392;9.998;2023-05-29T06:50:46;3.00;;;2.27;;
9156;SDS011;4613;48.392;9.998;2023-05-29T06:54:02;2.77;;;2.13;;
9156;SDS011;4613;48.392;9.998;2023-05-29T06:56:52;2.53;;;2.17;;
9156;SDS011;4613;48.392;9.998;2023-05-29T06:59:42;4.23;;;2.13;;
9156;SDS011;4613;48.392;9.998;2023-05-29T07:02:31;2.20;;;2.00;;
9156;SDS011;4613;48.392;9.998;2023-05-29T07:05:21;2.13;;;1.93;;
9156;SDS011;4613;48.392;9.998;2023-05-29T07:08:11;2.53;;;2.27;;
9156;SDS011;4613;48.392;9.998;2023-05-29T07:11:01;2.33;;;2.10;;
9156;SDS011;4613;48.392;9.998;2023-05-29T07:13:51;3.27;;;2.30;;
9156;SDS011;4613;48.392;9.998;2023-05-29T07:16:42;2.03;;;1.87;;
9156;SDS011;4613;48.392;9.998;2023-05-29T07:19:31;3.73;;;2.30;;
9156;SDS011;4613;48.392;9.998;2023-05-29T07:22:25;2.90;;;2.00;;
9156;SDS011;4613;48.392;9.998;2023-05-29T07:25:15;3.33;;;2.30;;
9156;SDS011;4613;48.392;9.998;2023-05-29T07:28:05;3.13;;;2.30;;
9156;SDS011;4613;48.392;9.998;2023-05-29T07:30:55;4.13;;;2.30;;
9156;SDS011;4613;48.392;9.998;2023-05-29T07:33:44;2.60;;;2.10;;
9156;SDS011;4613;48.392;9.998;2023-05-29T07:36:35;3.07;;;2.23;;
9156;SDS011;4613;48.392;9.998;2023-05-29T07:39:28;4.57;;;2.07;;
9156;SDS011;4613;48.392;9.998;2023-05-29T07:42:18;3.37;;;2.17;;
9156;SDS011;4613;48.392;9.998;2023-05-29T07:45:09;2.43;;;1.87;;
9156;SDS011;4613;48.392;9.998;2023-05-29T07:48:00;4.63;;;2.77;;
9156;SDS011;4613;48.392;9.998;2023-05-29T07:50:51;2.73;;;2.20;;
9156;SDS011;4613;48.392;9.998;2023-05-29T07:53:40;2.00;;;1.80;;
9156;SDS011;4613;48.392;9.998;2023-05-29T07:56:33;2.93;;;2.30;;
9156;SDS011;4613;48.392;9.998;2023-05-29T07:59:23;2.13;;;2.00;;
9156;SDS011;4613;48.392;9.998;2023-05-29T08:02:13;2.77;;;2.07;;
9156;SDS011;4613;48.392;9.998;2023-05-29T08:05:16;2.60;;;2.20;;
9156;SDS011;4613;48.392;9.998;2023-05-29T08:08:06;2.40;;;2.00;;
9156;SDS011;4613;48.392;9.998;2023-05-29T08:10:57;3.17;;;2.23;;
9156;SDS011;4613;48.392;9.998;2023-05-29T08:13:46;3.27;;;2.40;;
9156;SDS011;4613;48.392;9.998;2023-05-29T08:16:36;4.23;;;2.30;;
9156;SDS011;4613;48.392;9.998;2023-05-29T08:19:26;2.20;;;1.90;;
9156;SDS011;4613;48.392;9.998;2023-05-29T08:22:17;2.33;;;1.80;;
9156;SDS011;4613;48.392;9.998;2023-05-29T08:25:06;2.43;;;2.20;;
9156;SDS011;4613;48.392;9.998;2023-05-29T08:27:57;2.87;;;2.17;;
9156;SDS011;4613;48.392;9.998;2023-05-29T08:30:46;2.17;;;1.97;;
9156;SDS011;4613;48.392;9.998;2023-05-29T08:33:36;3.00;;;2.10;;
9156;SDS011;4613;48.392;9.998;2023-05-29T08:36:26;3.07;;;2.10;;
9156;SDS011;4613;48.392;9.998;2023-05-29T08:39:15;2.43;;;1.97;;
9156;SDS011;4613;48.392;9.998;2023-05-29T08:42:10;3.03;;;2.30;;
9156;SDS011;4613;48.392;9.998;2023-05-29T08:45:15;2.50;;;2.10;;
9156;SDS011;4613;48.392;9.998;2023-05-29T08:48:10;2.17;;;1.90;;
9156;SDS011;4613;48.392;9.998;2023-05-29T08:51:01;2.07;;;1.90;;
9156;SDS011;4613;48.392;9.998;2023-05-29T08:53:52;2.17;;;1.97;;
9156;SDS011;4613;48.392;9.998;2023-05-29T08:56:42;2.00;;;1.83;;
9156;SDS011;4613;48.392;9.998;2023-05-29T08:59:33;2.13;;;1.93;;
9156;SDS011;4613;48.392;9.998;2023-05-29T09:02:24;2.80;;;2.20;;
9156;SDS011;4613;48.392;9.998;2023-05-29T09:05:13;2.50;;;1.90;;
9156;SDS011;4613;48.392;9.998;2023-05-29T09:08:03;2.63;;;2.00;;
9156;SDS011;4613;48.392;9.998;2023-05-29T09:10:52;2.37;;;1.93;;
9156;SDS011;4613;48.392;9.998;2023-05-29T09:13:42;2.47;;;1.83;;
9156;SDS011;4613;48.392;9.998;2023-05-29T09:16:31;2.20;;;2.00;;
9156;SDS011;4613;48.392;9.998;2023-05-29T09:19:21;2.57;;;2.17;;
9156;SDS011;4613;48.392;9.998;2023-05-29T09:22:11;2.37;;;2.17;;
9156;SDS011;4613;48.392;9.998;2023-05-29T09:25:05;2.07;;;1.80;;
9156;SDS011;4613;48.392;9.998;2023-05-29T09:28:01;1.83;;;1.73;;
9156;SDS011;4613;48.392;9.998;2023-05-29T09:30:52;2.93;;;2.10;;
9156;SDS011;4613;48.392;9.998;2023-05-29T09:33:48;4.00;;;2.10;;
9156;SDS011;4613;48.392;9.998;2023-05-29T09:36:40;1.90;;;1.80;;
9156;SDS011;4613;48.392;9.998;2023-05-29T09:39:30;2.10;;;1.90;;
9156;SDS011;4613;48.392;9.998;2023-05-29T09:42:19;2.23;;;1.90;;
9156;SDS011;4613;48.392;9.998;2023-05-29T09:45:10;3.30;;;2.10;;
9156;SDS011;4613;48.392;9.998;2023-05-29T09:47:59;2.27;;;1.90;;
9156;SDS011;4613;48.392;9.998;2023-05-29T09:50:48;1.93;;;1.60;;
9156;SDS011;4613;48.392;9.998;2023-05-29T09:53:39;2.87;;;2.20;;
9156;SDS011;4613;48.392;9.998;2023-05-29T09:56:31;1.90;;;1.73;;
9156;SDS011;4613;48.392;9.998;2023-05-29T09:59:21;3.53;;;1.90;;
9156;SDS011;4613;48.392;9.998;2023-05-29T10:02:13;2.47;;;2.00;;
9156;SDS011;4613;48.392;9.998;2023-05-29T10:05:04;2.97;;;2.10;;
9156;SDS011;4613;48.392;9.998;2023-05-29T10:07:53;2.13;;;1.80;;
9156;SDS011;4613;48.392;9.998;2023-05-29T10:10:44;2.43;;;1.80;;
9156;SDS011;4613;48.392;9.998;2023-05-29T10:13:39;2.43;;;1.90;;
9156;SDS011;4613;48.392;9.998;2023-05-29T10:16:39;3.23;;;1.70;;
9156;SDS011;4613;48.392;9.998;2023-05-29T10:19:30;1.97;;;1.77;;
9156;SDS011;4613;48.392;9.998;2023-05-29T10:22:22;2.37;;;2.17;;
9156;SDS011;4613;48.392;9.998;2023-05-29T10:25:14;2.53;;;1.90;;
9156;SDS011;4613;48.392;9.998;2023-05-29T10:28:08;1.90;;;1.70;;
9156;SDS011;4613;48.392;9.998;2023-05-29T10:31:07;2.07;;;1.70;;
9156;SDS011;4613;48.392;9.998;2023-05-29T10:37:31;1.70;;;1.60;;
9156;SDS011;4613;48.392;9.998;2023-05-29T10:40:53;1.60;;;1.40;;
9156;SDS011;4613;48.392;9.998;2023-05-29T10:43:42;2.87;;;1.80;;
9156;SDS011;4613;48.392;9.998;2023-05-29T10:49:32;2.03;;;1.63;;
9156;SDS011;4613;48.392;9.998;2023-05-29T10:52:21;2.20;;;1.83;;
9156;SDS011;4613;48.392;9.998;2023-05-29T10:55:11;2.60;;;2.03;;
9156;SDS011;4613;48.392;9.998;2023-05-29T10:58:04;1.90;;;1.67;;
9156;SDS011;4613;48.392;9.998;2023-05-29T11:00:57;1.97;;;1.70;;
9156;SDS011;4613;48.392;9.998;2023-05-29T11:03:47;1.73;;;1.63;;
9156;SDS011;4613;48.392;9.998;2023-05-29T11:06:37;1.73;;;1.63;;
9156;SDS011;4613;48.392;9.998;2023-05-29T11:12:24;1.70;;;1.60;;
9156;SDS011;4613;48.392;9.998;2023-05-29T11:15:21;1.67;;;1.50;;
9156;SDS011;4613;48.392;9.998;2023-05-29T11:18:12;1.60;;;1.50;;
9156;SDS011;4613;48.392;9.998;2023-05-29T11:21:03;5.43;;;1.63;;
9156;SDS011;4613;48.392;9.998;2023-05-29T11:24:02;3.43;;;1.70;;
9156;SDS011;4613;48.392;9.998;2023-05-29T11:26:54;1.60;;;1.50;;
9156;SDS011;4613;48.392;9.998;2023-05-29T11:29:44;2.03;;;1.47;;
9156;SDS011;4613;48.392;9.998;2023-05-29T11:32:36;1.67;;;1.50;;
9156;SDS011;4613;48.392;9.998;2023-05-29T11:35:28;1.97;;;1.60;;
9156;SDS011;4613;48.392;9.998;2023-05-29T11:38:20;2.13;;;1.40;;
9156;SDS011;4613;48.392;9.998;2023-05-29T11:41:09;1.33;;;1.23;;
9156;SDS011;4613;48.392;9.998;2023-05-29T11:43:59;1.63;;;1.47;;
9156;SDS011;4613;48.392;9.998;2023-05-29T11:47:04;1.57;;;1.40;;
9156;SDS011;4613;48.392;9.998;2023-05-29T11:49:55;2.10;;;1.37;;
9156;SDS011;4613;48.392;9.998;2023-05-29T11:52:45;1.73;;;1.40;;
9156;SDS011;4613;48.392;9.998;2023-05-29T11:55:35;1.53;;;1.40;;
9156;SDS011;4613;48.392;9.998;2023-05-29T11:58:25;1.40;;;1.30;;
9156;SDS011;4613;48.392;9.998;2023-05-29T12:01:18;1.67;;;1.50;;
9156;SDS011;4613;48.392;9.998;2023-05-29T12:04:15;1.50;;;1.30;;
9156;SDS011;4613;48.392;9.998;2023-05-29T12:07:17;1.77;;;1.43;;
9156;SDS011;4613;48.392;9.998;2023-05-29T12:10:13;1.40;;;1.30;;
9156;SDS011;4613;48.392;9.998;2023-05-29T12:13:04;1.50;;;1.23;;
9156;SDS011;4613;48.392;9.998;2023-05-29T12:15:56;2.27;;;1.20;;
9156;SDS011;4613;48.392;9.998;2023-05-29T12:18:51;2.00;;;1.80;;
9156;SDS011;4613;48.392;9.998;2023-05-29T12:21:41;1.30;;;1.20;;
9156;SDS011;4613;48.392;9.998;2023-05-29T12:24:34;1.47;;;1.37;;
9156;SDS011;4613;48.392;9.998;2023-05-29T12:27:24;1.30;;;1.20;;
9156;SDS011;4613;48.392;9.998;2023-05-29T12:33:06;1.30;;;1.20;;
9156;SDS011;4613;48.392;9.998;2023-05-29T12:36:06;1.40;;;1.30;;
9156;SDS011;4613;48.392;9.998;2023-05-29T12:38:58;1.67;;;1.40;;
9156;SDS011;4613;48.392;9.998;2023-05-29T12:41:49;1.73;;;1.40;;
9156;SDS011;4613;48.392;9.998;2023-05-29T12:44:42;2.00;;;1.47;;
9156;SDS011;4613;48.392;9.998;2023-05-29T12:47:32;1.43;;;1.33;;
9156;SDS011;4613;48.392;9.998;2023-05-29T12:50:23;2.30;;;1.77;;
9156;SDS011;4613;48.392;9.998;2023-05-29T12:53:14;1.57;;;1.47;;
9156;SDS011;4613;48.392;9.998;2023-05-29T12:56:04;1.40;;;1.30;;
9156;SDS011;4613;48.392;9.998;2023-05-29T12:58:53;1.90;;;1.70;;
9156;SDS011;4613;48.392;9.998;2023-05-29T13:01:43;1.57;;;1.47;;
9156;SDS011;4613;48.392;9.998;2023-05-29T13:04:33;2.23;;;1.50;;
9156;SDS011;4613;48.392;9.998;2023-05-29T13:07:24;1.43;;;1.33;;
9156;SDS011;4613;48.392;9.998;2023-05-29T13:10:17;1.57;;;1.40;;
9156;SDS011;4613;48.392;9.998;2023-05-29T13:13:06;2.57;;;1.70;;
9156;SDS011;4613;48.392;9.998;2023-05-29T13:15:56;2.37;;;1.70;;
9156;SDS011;4613;48.392;9.998;2023-05-29T13:18:45;1.50;;;1.40;;
9156;SDS011;4613;48.392;9.998;2023-05-29T13:21:35;1.20;;;1.20;;
9156;SDS011;4613;48.392;9.998;2023-05-29T13:24:25;1.60;;;1.50;;
9156;SDS011;4613;48.392;9.998;2023-05-29T13:27:14;2.13;;;1.50;;
9156;SDS011;4613;48.392;9.998;2023-05-29T13:30:05;1.73;;;1.60;;
9156;SDS011;4613;48.392;9.998;2023-05-29T13:32:54;1.50;;;1.40;;
9156;SDS011;4613;48.392;9.998;2023-05-29T13:35:44;1.67;;;1.57;;
9156;SDS011;4613;48.392;9.998;2023-05-29T13:38:33;2.47;;;1.80;;
9156;SDS011;4613;48.392;9.998;2023-05-29T13:41:22;2.10;;;1.63;;
9156;SDS011;4613;48.392;9.998;2023-05-29T13:44:11;2.23;;;1.57;;
9156;SDS011;4613;48.392;9.998;2023-05-29T13:47:00;1.47;;;1.37;;
9156;SDS011;4613;48.392;9.998;2023-05-29T13:49:49;2.80;;;1.80;;
9156;SDS011;4613;48.392;9.998;2023-05-29T13:52:39;2.20;;;1.50;;
9156;SDS011;4613;48.392;9.998;2023-05-29T13:55:28;1.90;;;1.70;;
9156;SDS011;4613;48.392;9.998;2023-05-29T13:58:17;1.97;;;1.60;;
9156;SDS011;4613;48.392;9.998;2023-05-29T14:01:06;1.73;;;1.60;;
9156;SDS011;4613;48.392;9.998;2023-05-29T14:03:56;3.30;;;1.80;;
9156;SDS011;4613;48.392;9.998;2023-05-29T14:06:45;3.10;;;1.80;;
9156;SDS011;4613;48.392;9.998;2023-05-29T14:09:34;1.60;;;1.50;;
9156;SDS011;4613;48.392;9.998;2023-05-29T14:12:23;2.83;;;1.83;;
9156;SDS011;4613;48.392;9.998;2023-05-29T14:15:12;1.70;;;1.60;;
9156;SDS011;4613;48.392;9.998;2023-05-29T14:18:01;2.30;;;1.60;;
9156;SDS011;4613;48.392;9.998;2023-05-29T14:20:51;1.80;;;1.60;;
9156;SDS011;4613;48.392;9.998;2023-05-29T14:23:40;1.93;;;1.60;;
9156;SDS011;4613;48.392;9.998;2023-05-29T14:26:29;2.13;;;1.63;;
9156;SDS011;4613;48.392;9.998;2023-05-29T14:29:18;2.13;;;1.90;;
9156;SDS011;4613;48.392;9.998;2023-05-29T14:32:07;1.87;;;1.67;;
9156;SDS011;4613;48.392;9.998;2023-05-29T14:34:57;2.30;;;1.70;;
9156;SDS011;4613;48.392;9.998;2023-05-29T14:37:46;1.70;;;1.60;;
9156;SDS011;4613;48.392;9.998;2023-05-29T14:40:35;1.60;;;1.50;;
9156;SDS011;4613;48.392;9.998;2023-05-29T14:43:25;2.07;;;1.70;;
9156;SDS011;4613;48.392;9.998;2023-05-29T14:46:16;1.70;;;1.60;;
9156;SDS011;4613;48.392;9.998;2023-05-29T14:49:05;1.83;;;1.63;;
9156;SDS011;4613;48.392;9.998;2023-05-29T14:51:54;2.17;;;1.73;;
9156;SDS011;4613;48.392;9.998;2023-05-29T14:54:43;1.90;;;1.70;;
9156;SDS011;4613;48.392;9.998;2023-05-29T14:57:32;2.60;;;1.70;;
9156;SDS011;4613;48.392;9.998;2023-05-29T15:00:23;2.00;;;1.50;;
9156;SDS011;4613;48.392;9.998;2023-05-29T15:03:12;1.70;;;1.60;;
9156;SDS011;4613;48.392;9.998;2023-05-29T15:06:05;1.73;;;1.63;;
9156;SDS011;4613;48.392;9.998;2023-05-29T15:08:55;1.87;;;1.77;;
9156;SDS011;4613;48.392;9.998;2023-05-29T15:11:44;2.37;;;1.77;;
9156;SDS011;4613;48.392;9.998;2023-05-29T15:14:34;2.37;;;1.90;;
9156;SDS011;4613;48.392;9.998;2023-05-29T15:17:24;1.90;;;1.70;;
9156;SDS011;4613;48.392;9.998;2023-05-29T15:20:13;1.63;;;1.53;;
9156;SDS011;4613;48.392;9.998;2023-05-29T15:23:02;1.50;;;1.30;;
9156;SDS011;4613;48.392;9.998;2023-05-29T15:25:52;1.77;;;1.50;;
9156;SDS011;4613;48.392;9.998;2023-05-29T15:28:42;2.40;;;1.60;;
9156;SDS011;4613;48.392;9.998;2023-05-29T15:31:31;2.37;;;1.63;;
9156;SDS011;4613;48.392;9.998;2023-05-29T15:34:20;2.23;;;1.47;;
9156;SDS011;4613;48.392;9.998;2023-05-29T15:37:10;1.40;;;1.30;;
9156;SDS011;4613;48.392;9.998;2023-05-29T15:39:59;2.20;;;1.67;;
9156;SDS011;4613;48.392;9.998;2023-05-29T15:42:48;1.77;;;1.67;;
9156;SDS011;4613;48.392;9.998;2023-05-29T15:45:37;1.70;;;1.60;;
9156;SDS011;4613;48.392;9.998;2023-05-29T15:48:27;1.80;;;1.70;;
9156;SDS011;4613;48.392;9.998;2023-05-29T15:51:16;2.13;;;1.63;;
9156;SDS011;4613;48.392;9.998;2023-05-29T15:54:06;1.60;;;1.50;;
9156;SDS011;4613;48.392;9.998;2023-05-29T15:56:55;1.77;;;1.50;;
9156;SDS011;4613;48.392;9.998;2023-05-29T15:59:45;2.37;;;1.87;;
9156;SDS011;4613;48.392;9.998;2023-05-29T16:02:34;3.43;;;1.63;;
9156;SDS011;4613;48.392;9.998;2023-05-29T16:05:27;1.70;;;1.60;;
9156;SDS011;4613;48.392;9.998;2023-05-29T16:08:16;1.83;;;1.67;;
9156;SDS011;4613;48.392;9.998;2023-05-29T16:11:05;2.40;;;1.70;;
9156;SDS011;4613;48.392;9.998;2023-05-29T16:13:55;1.97;;;1.87;;
9156;SDS011;4613;48.392;9.998;2023-05-29T16:16:45;3.47;;;1.40;;
9156;SDS011;4613;48.392;9.998;2023-05-29T16:19:34;2.97;;;1.70;;
9156;SDS011;4613;48.392;9.998;2023-05-29T16:22:27;1.70;;;1.60;;
9156;SDS011;4613;48.392;9.998;2023-05-29T16:25:16;1.70;;;1.60;;
9156;SDS011;4613;48.392;9.998;2023-05-29T16:28:06;1.67;;;1.57;;
9156;SDS011;4613;48.392;9.998;2023-05-29T16:30:55;1.73;;;1.60;;
9156;SDS011;4613;48.392;9.998;2023-05-29T16:33:44;1.70;;;1.60;;
9156;SDS011;4613;48.392;9.998;2023-05-29T16:36:35;1.63;;;1.53;;
9156;SDS011;4613;48.392;9.998;2023-05-29T16:39:25;2.67;;;1.40;;
9156;SDS011;4613;48.392;9.998;2023-05-29T16:42:19;1.90;;;1.67;;
9156;SDS011;4613;48.392;9.998;2023-05-29T16:45:09;1.77;;;1.67;;
9156;SDS011;4613;48.392;9.998;2023-05-29T16:47:58;3.00;;;1.60;;
9156;SDS011;4613;48.392;9.998;2023-05-29T16:50:48;1.70;;;1.60;;
9156;SDS011;4613;48.392;9.998;2023-05-29T16:53:39;3.00;;;1.40;;
9156;SDS011;4613;48.392;9.998;2023-05-29T16:56:28;1.87;;;1.40;;
9156;SDS011;4613;48.392;9.998;2023-05-29T16:59:19;1.50;;;1.40;;
9156;SDS011;4613;48.392;9.998;2023-05-29T17:02:08;1.73;;;1.30;;
9156;SDS011;4613;48.392;9.998;2023-05-29T17:04:58;3.10;;;1.40;;
9156;SDS011;4613;48.392;9.998;2023-05-29T17:07:47;1.50;;;1.40;;
9156;SDS011;4613;48.392;9.998;2023-05-29T17:10:36;1.77;;;1.43;;
9156;SDS011;4613;48.392;9.998;2023-05-29T17:13:26;1.43;;;1.33;;
9156;SDS011;4613;48.392;9.998;2023-05-29T17:16:18;1.60;;;1.50;;
9156;SDS011;4613;48.392;9.998;2023-05-29T17:19:08;1.40;;;1.30;;
9156;SDS011;4613;48.392;9.998;2023-05-29T17:21:57;1.53;;;1.33;;
9156;SDS011;4613;48.392;9.998;2023-05-29T17:24:48;1.60;;;1.40;;
9156;SDS011;4613;48.392;9.998;2023-05-29T17:27:37;1.50;;;1.40;;
9156;SDS011;4613;48.392;9.998;2023-05-29T17:30:27;1.53;;;1.43;;
9156;SDS011;4613;48.392;9.998;2023-05-29T17:33:16;2.10;;;1.50;;
9156;SDS011;4613;48.392;9.998;2023-05-29T17:36:06;1.80;;;1.20;;
9156;SDS011;4613;48.392;9.998;2023-05-29T17:38:56;1.43;;;1.33;;
9156;SDS011;4613;48.392;9.998;2023-05-29T17:41:46;1.60;;;1.50;;
9156;SDS011;4613;48.392;9.998;2023-05-29T17:44:36;1.60;;;1.50;;
9156;SDS011;4613;48.392;9.998;2023-05-29T17:47:25;1.37;;;1.30;;
9156;SDS011;4613;48.392;9.998;2023-05-29T17:50:14;1.40;;;1.30;;
9156;SDS011;4613;48.392;9.998;2023-05-29T17:53:04;1.60;;;1.47;;
9156;SDS011;4613;48.392;9.998;2023-05-29T17:55:55;1.60;;;1.50;;
9156;SDS011;4613;48.392;9.998;2023-05-29T17:58:44;1.40;;;1.30;;